Historyczne dane pomiarowe

Dodano dane terminowe – wersja testowa.

Dane z okresu 1951-2019

Wersja bazy: 1.34 [2019-03-16, lista zmian], aktualizacja planowana na 2019-04-15

Dane meteo z obszaru Polski uzyskane na podstawie danych udostępnionych przez Instytut Meteorologii i Gospodarki Wodnej – Państwowy Instytut Badawczy.

 

Wybierz Datę:    

       

TemperaturaWilgotnośćWiatrCiśnienieOpadyŚniegCzas trwania zjawisk
 Stacja t tx tn tng RH VA  wxwx mslp ppp RRR   cm mm wxwxwxwxwxwxwx
1975-07-16 11.4 14.7 10.2- 73.6 9.9 6.5 4.4 0.0 0.0- 802.8 0.0 0.0 0.0- 0.0 5.4------ 0.7
1975-07-17 7.6 10.9 5.2- 80.4 8.4 5.6 3.5 0.0 0.0- 801.2 0.0 0.0 0.0- 0.0 2.6 0.8------
1975-07-18 8.9 10.7 7.0- 88.3 10.1 5.1 6.8 3.5 0.0- 801.8 19.3 18.6 0.7- 0.0 3.7 4.3-- 3.6-- 2.6
1975-07-19 9.6 13.2 7.7- 91.5 10.9 7.3 5.4 2.5 0.0- 798.3 39.5 25.9 13.6- 0.0 1.4 10.8-- 13.8-- 4.6
1975-07-20 5.4 7.7 3.9-100.0 9.0 8.0 8.5 11.3 0.0- 797.3 12.2 1.4 10.8- 0.0 0.0 13.2-- 23.3---
1975-07-21 5.2 6.2 3.4-100.0 8.9 8.0 8.6 8.7 0.0- 795.5 21.6 1.9 19.7- 0.0 0.0 18.3-- 24.0---
1975-07-22 6.8 9.6 5.3- 99.1 9.8 6.5 7.1 8.7 0.0- 799.4 0.0 0.0 0.0- 0.0 3.4 1.9-- 17.1 1.5--
1975-07-23 8.4 11.8 5.2- 84.9 9.3 4.1 3.4 0.0 0.0- 801.7 1.2 1.2 0.0- 0.0 7.2 1.2-- 1.6 8.0--
1975-07-24 10.0 13.1 7.4- 88.3 10.8 3.6 6.5 0.0 0.0- 800.7 6.5 0.0 6.5- 0.0 12.8--- 5.5 6.5--
1975-07-25 5.8 10.7 3.1-100.0 9.3 8.0 3.0 0.0 0.0- 797.5 63.9 51.3 12.6- 0.0 0.0 17.5-- 24.0-- 2.9
1975-07-26 0.4 3.9 -0.7-100.0 6.3 8.0 6.6 0.0 0.0- 800.4 13.6 11.6 2.0- 0.0 0.0 0.9 8.7 5.1 24.0---
1975-07-27 1.1 3.2 0.2- 96.5 6.4 7.8 7.6 7.5 0.0- 801.3 3.2 0.0 3.2- 0.0 1.6 3.8-- 14.5---
1975-07-28 4.0 5.6 1.3-100.0 8.1 8.0 13.3 24.0 0.0- 799.4 12.6 6.0 6.6- 0.0 0.0 18.6-- 24.0---
1975-07-29 6.7 9.0 4.4- 99.0 9.7 7.4 8.5 7.3 0.0- 803.4 0.2 0.2 0.0- 0.0 2.9 6.5-- 16.1---
1975-07-30 7.2 8.4 6.5- 99.4 10.1 7.6 7.0 0.0 0.0- 803.2 8.5 4.8 3.7- 0.0 1.6 8.1-- 22.0---
1975-07-31 6.8 9.1 4.7- 99.3 9.8 5.9 5.0 0.0 0.0- 804.2 0.6 0.6 0.0- 0.0 4.5 2.1-- 19.2---
1975-08-01 6.9 9.5 6.0- 99.1 9.9 7.5 6.8 0.0 0.0- 805.2 0.2 0.2 0.0- 0.0 2.8 1.3-- 17.5-- 2.0
1975-08-02 5.7 9.1 4.1- 99.4 9.1 7.6 4.5 0.0 0.0- 805.8 9.7 6.8 2.9- 0.0 2.5 10.4-- 21.4-- 1.8
1975-08-03 5.3 6.6 3.1-100.0 8.9 8.0 7.8 4.8 0.0- 806.0 30.9 10.3 20.6- 0.0 0.0 17.2-- 24.0---
1975-08-04 5.5 6.5 3.8-100.0 9.0 7.9 10.9 18.4 0.0- 805.7 27.7 8.8 18.9- 0.0 0.8 9.9-- 23.3---
1975-08-05 6.6 9.1 4.6- 99.6 9.7 6.9 6.3 1.7 0.0- 805.3 0.0 0.0 0.0- 0.0 2.2 4.8-- 16.3---
1975-08-06 7.4 9.1 5.7- 99.6 10.3 6.5 5.6 0.0 0.0- 807.6 11.8 10.6 1.2- 0.0 0.2 2.0-- 21.3-- 4.1
1975-08-07 7.8 8.5 6.8-100.0 10.6 7.9 10.4 14.8 0.0- 808.3 6.1 6.1 0.0- 0.0 0.0 5.3-- 24.0---
1975-08-08 8.1 11.1 6.4- 97.0 10.5 6.1 6.9 0.3 0.0- 808.0 5.9 5.9 0.0- 0.0 5.5 1.3-- 16.1-- 0.7
1975-08-09 10.2 13.2 7.3- 71.9 9.1 2.0 4.3 0.0 0.0- 806.6 0.0 0.0 0.0- 0.0 12.0-------
1975-08-10 10.6 14.8 8.7- 84.5 10.8 5.6 2.9 0.0 0.0- 807.2 1.5 1.5 0.0- 0.0 4.3 1.2-- 7.0-- 3.7
1975-08-11 10.7 13.1 9.0- 74.3 9.6 3.5 2.6 0.0 0.0- 806.3 1.8 1.8 0.0- 0.0 8.3 2.7--- 1.5- 4.5
1975-08-12 10.7 14.5 9.1- 76.9 9.9 2.8 3.1 0.0 0.0- 801.5 0.8 0.0 0.8- 0.0 9.1 0.8-- 2.7 3.8- 1.8
1975-08-13 3.8 10.2 0.1- 89.9 7.3 6.3 5.0 2.7 0.0- 799.1 0.0 0.0 0.0- 0.0 1.1 1.3-- 16.9---
1975-08-14 6.3 9.7 0.1- 54.9 5.5 0.6 1.8 0.0 0.0- 802.6 0.0 0.0 0.0- 0.0 13.3-------
226.5 ms

 

Źródłem pochodzenia danych jest Instytut Meteorologii i Gospodarki Wodnej – Państwowy Instytut Badawczy. Dane Instytutu Meteorologii i Gospodarki Wodnej – Państwowego Instytutu Badawczego zostały przetworzone.

Dane źródłowe można odnaleźć na stronie https://dane.imgw.pl